Time,TemperatureF,DewpointF,PressureIn,WindDirection,WindDirectionDegrees,WindSpeedMPH,WindSpeedGustMPH,Humidity,HourlyPrecipIn,Conditions,Clouds,dailyrainin,SoftwareType,DateUTC
2013-07-29 00:04:00,66.3,61.0,30.04,South,182,1.0,4.0,82,0.00,,,0.00,weatherlink.com 1.10,2013-07-29 05:04:00,
2013-07-29 00:19:00,66.1,61.0,30.04,South,182,0.0,4.0,83,0.00,,,0.00,weatherlink.com 1.10,2013-07-29 05:19:00,
2013-07-29 00:34:00,65.8,61.0,30.05,South,182,1.0,2.0,84,0.00,,,0.00,weatherlink.com 1.10,2013-07-29 05:34:00,
2013-07-29 00:49:00,65.5,61.0,30.05,South,182,0.0,2.0,84,0.00,,,0.00,weatherlink.com 1.10,2013-07-29 05:49:00,
2013-07-29 01:04:00,65.2,61.0,30.04,South,182,0.0,1.0,85,0.00,,,0.00,weatherlink.com 1.10,2013-07-29 06:04:00,
2013-07-29 01:20:00,64.0,60.0,30.04,South,182,0.0,0.0,86,0.00,,,0.00,weatherlink.com 1.10,2013-07-29 06:20:00,
2013-07-29 01:35:00,62.8,59.0,30.05,South,182,0.0,0.0,88,0.00,,,0.00,weatherlink.com 1.10,2013-07-29 06:35:00,
2013-07-29 01:50:00,62.1,59.0,30.05,South,182,0.0,0.0,89,0.00,,,0.00,weatherlink.com 1.10,2013-07-29 06:50:00,
2013-07-29 02:05:00,61.6,59.0,30.05,South,182,0.0,0.0,91,0.00,,,0.00,weatherlink.com 1.10,2013-07-29 07:05:00,
2013-07-29 02:20:00,61.1,59.0,30.05,South,182,0.0,0.0,91,0.00,,,0.00,weatherlink.com 1.10,2013-07-29 07:20:00,
2013-07-29 02:35:00,60.3,58.0,30.05,South,182,0.0,0.0,91,0.00,,,0.00,weatherlink.com 1.10,2013-07-29 07:35:00,
2013-07-29 02:50:00,60.0,58.0,30.05,South,182,0.0,0.0,92,0.00,,,0.00,weatherlink.com 1.10,2013-07-29 07:50:00,
2013-07-29 03:05:00,59.7,58.0,30.06,South,182,0.0,0.0,93,0.00,,,0.00,weatherlink.com 1.10,2013-07-29 08:05:00,
2013-07-29 03:20:00,59.5,58.0,30.06,South,182,0.0,1.0,93,0.00,,,0.00,weatherlink.com 1.10,2013-07-29 08:20:00,
2013-07-29 03:35:00,59.2,57.0,30.07,South,182,0.0,0.0,93,0.00,,,0.00,weatherlink.com 1.10,2013-07-29 08:35:00,
2013-07-29 03:50:00,58.3,56.0,30.07,South,182,0.0,0.0,93,0.00,,,0.00,weatherlink.com 1.10,2013-07-29 08:50:00,
2013-07-29 04:05:00,58.2,57.0,30.07,South,182,0.0,0.0,94,0.00,,,0.00,weatherlink.com 1.10,2013-07-29 09:05:00,
2013-07-29 04:20:00,58.0,56.0,30.08,South,182,0.0,1.0,94,0.00,,,0.00,weatherlink.com 1.10,2013-07-29 09:20:00,
2013-07-29 04:35:00,57.9,56.0,30.08,South,182,0.0,0.0,94,0.00,,,0.00,weatherlink.com 1.10,2013-07-29 09:35:00,
2013-07-29 04:50:00,57.6,56.0,30.09,South,182,0.0,0.0,94,0.00,,,0.00,weatherlink.com 1.10,2013-07-29 09:50:00,
2013-07-29 05:05:00,57.6,56.0,30.09,South,182,0.0,0.0,94,0.00,,,0.00,weatherlink.com 1.10,2013-07-29 10:05:00,
2013-07-29 05:20:00,57.8,56.0,30.09,South,182,0.0,0.0,95,0.00,,,0.00,weatherlink.com 1.10,2013-07-29 10:20:00,
2013-07-29 05:35:00,57.8,56.0,30.09,South,182,0.0,0.0,95,0.00,,,0.00,weatherlink.com 1.10,2013-07-29 10:35:00,
2013-07-29 05:50:00,57.6,56.0,30.10,South,182,0.0,0.0,95,0.00,,,0.00,weatherlink.com 1.10,2013-07-29 10:50:00,
2013-07-29 06:05:00,57.5,56.0,30.10,South,182,0.0,0.0,95,0.00,,,0.00,weatherlink.com 1.10,2013-07-29 11:05:00,
2013-07-29 06:20:00,57.2,56.0,30.11,South,182,0.0,3.0,95,0.00,,,0.00,weatherlink.com 1.10,2013-07-29 11:20:00,
2013-07-29 06:35:00,57.5,56.0,30.11,South,182,0.0,0.0,95,0.00,,,0.00,weatherlink.com 1.10,2013-07-29 11:35:00,
2013-07-29 06:50:00,58.1,57.0,30.11,South,182,0.0,0.0,96,0.00,,,0.00,weatherlink.com 1.10,2013-07-29 11:50:00,
2013-07-29 07:05:00,59.8,59.0,30.12,South,182,0.0,0.0,96,0.00,,,0.00,weatherlink.com 1.10,2013-07-29 12:05:00,
2013-07-29 07:20:00,61.1,60.0,30.12,South,182,0.0,0.0,96,0.00,,,0.00,weatherlink.com 1.10,2013-07-29 12:20:00,
2013-07-29 07:50:00,63.3,62.0,30.12,South,182,0.0,0.0,96,0.00,,,0.00,weatherlink.com 1.10,2013-07-29 12:50:00,
2013-07-29 08:20:00,67.8,65.0,30.12,South,182,0.0,1.0,89,0.00,,,0.00,weatherlink.com 1.10,2013-07-29 13:20:00,
2013-07-29 08:35:00,69.4,65.0,30.12,South,182,0.0,2.0,87,0.00,,,0.00,weatherlink.com 1.10,2013-07-29 13:35:00,
2013-07-29 08:51:00,70.7,66.0,30.12,South,182,1.0,2.0,85,0.00,,,0.00,weatherlink.com 1.10,2013-07-29 13:51:00,
2013-07-29 09:06:00,71.6,66.0,30.12,South,182,0.0,4.0,81,0.00,,,0.00,weatherlink.com 1.10,2013-07-29 14:06:00,
2013-07-29 09:21:00,72.6,66.0,30.12,South,182,2.0,6.0,80,0.00,,,0.00,weatherlink.com 1.10,2013-07-29 14:21:00,
2013-07-29 09:36:00,73.7,66.0,30.13,South,182,2.0,4.0,76,0.00,,,0.00,weatherlink.com 1.10,2013-07-29 14:36:00,
2013-07-29 10:21:00,74.8,67.0,30.14,SSW,192,0.0,6.0,77,0.00,,,0.00,weatherlink.com 1.10,2013-07-29 15:21:00,
2013-07-29 11:21:00,77.2,67.0,30.14,SSE,165,3.0,6.0,70,0.00,,,0.00,weatherlink.com 1.10,2013-07-29 16:21:00,
2013-07-29 12:06:00,77.3,67.0,30.15,SSW,196,5.0,5.0,70,0.00,,,0.00,weatherlink.com 1.10,2013-07-29 17:06:00,
2013-07-29 12:21:00,77.5,65.0,30.14,SSW,196,0.0,4.0,66,0.00,,,0.00,weatherlink.com 1.10,2013-07-29 17:21:00,
2013-07-29 12:36:00,78.0,67.0,30.13,SSE,166,2.0,6.0,68,0.00,,,0.00,weatherlink.com 1.10,2013-07-29 17:36:00,
2013-07-29 12:51:00,77.3,67.0,30.13,South,171,4.0,6.0,70,0.00,,,0.00,weatherlink.com 1.10,2013-07-29 17:51:00,
2013-07-29 13:06:00,77.0,67.0,30.13,South,190,5.0,9.0,72,0.00,,,0.00,weatherlink.com 1.10,2013-07-29 18:06:00,
2013-07-29 13:36:00,76.8,68.0,30.13,South,179,1.0,5.0,73,0.00,,,0.00,weatherlink.com 1.10,2013-07-29 18:36:00,
2013-07-29 14:06:00,76.1,67.0,30.12,South,182,4.0,6.0,73,0.00,,,0.00,weatherlink.com 1.10,2013-07-29 19:06:00,
2013-07-29 14:21:00,76.2,67.0,30.12,South,188,3.0,6.0,73,0.00,,,0.00,weatherlink.com 1.10,2013-07-29 19:21:00,
2013-07-29 14:36:00,76.4,68.0,30.13,South,176,3.0,6.0,74,0.00,,,0.00,weatherlink.com 1.10,2013-07-29 19:36:00,
2013-07-29 14:51:00,76.6,66.0,30.12,South,186,4.0,6.0,70,0.00,,,0.00,weatherlink.com 1.10,2013-07-29 19:51:00,
2013-07-29 15:06:00,77.0,67.0,30.12,South,186,2.0,5.0,72,0.00,,,0.00,weatherlink.com 1.10,2013-07-29 20:06:00,
2013-07-29 15:21:00,76.9,66.0,30.11,South,170,1.0,6.0,69,0.00,,,0.00,weatherlink.com 1.10,2013-07-29 20:21:00,
2013-07-29 15:36:00,76.7,65.0,30.12,South,175,4.0,6.0,68,0.00,,,0.00,weatherlink.com 1.10,2013-07-29 20:36:00,
2013-07-29 16:06:00,77.3,66.0,30.12,South,176,1.0,4.0,68,0.00,,,0.00,weatherlink.com 1.10,2013-07-29 21:06:00,
2013-07-29 16:21:00,76.9,66.0,30.12,South,176,0.0,4.0,69,0.00,,,0.00,weatherlink.com 1.10,2013-07-29 21:21:00,
2013-07-29 16:36:00,76.7,67.0,30.12,South,176,0.0,2.0,71,0.00,,,0.00,weatherlink.com 1.10,2013-07-29 21:36:00,
2013-07-29 16:51:00,76.4,67.0,30.13,South,176,2.0,3.0,73,0.00,,,0.00,weatherlink.com 1.10,2013-07-29 21:51:00,
2013-07-29 17:36:00,75.7,66.0,30.12,South,176,1.0,3.0,72,0.00,,,0.00,weatherlink.com 1.10,2013-07-29 22:36:00,
2013-07-29 18:21:00,75.6,69.0,30.11,South,176,0.0,1.0,80,0.00,,,0.00,weatherlink.com 1.10,2013-07-29 23:21:00,
2013-07-29 18:51:00,74.8,68.0,30.12,South,176,0.0,0.0,80,0.00,,,0.00,weatherlink.com 1.10,2013-07-29 23:51:00,
2013-07-29 19:21:00,74.7,69.0,30.12,South,176,0.0,0.0,82,0.00,,,0.00,weatherlink.com 1.10,2013-07-30 00:21:00,
2013-07-29 19:36:00,74.4,70.0,30.12,South,176,0.0,0.0,85,0.00,,,0.00,weatherlink.com 1.10,2013-07-30 00:36:00,
2013-07-29 19:51:00,73.5,69.0,30.11,South,176,0.0,0.0,86,0.00,,,0.00,weatherlink.com 1.10,2013-07-30 00:51:00,
2013-07-29 20:07:00,72.4,68.0,30.11,South,176,0.0,0.0,87,0.00,,,0.00,weatherlink.com 1.10,2013-07-30 01:07:00,
2013-07-29 20:22:00,71.8,68.0,30.11,South,176,0.0,0.0,88,0.00,,,0.00,weatherlink.com 1.10,2013-07-30 01:22:00,
2013-07-29 20:36:00,71.2,68.0,30.12,South,176,0.0,0.0,89,0.00,,,0.00,weatherlink.com 1.10,2013-07-30 01:36:00,
2013-07-29 21:21:00,69.3,67.0,30.12,South,176,0.0,0.0,91,0.00,,,0.00,weatherlink.com 1.10,2013-07-30 02:21:00,
2013-07-29 21:36:00,69.0,66.0,30.13,South,176,0.0,0.0,91,0.00,,,0.00,weatherlink.com 1.10,2013-07-30 02:36:00,
2013-07-29 21:52:00,68.8,66.0,30.14,South,176,0.0,0.0,92,0.00,,,0.00,weatherlink.com 1.10,2013-07-30 02:52:00,
2013-07-29 22:37:00,68.5,67.0,30.14,South,176,0.0,1.0,93,0.00,,,0.00,weatherlink.com 1.10,2013-07-30 03:37:00,
2013-07-29 22:52:00,68.5,67.0,30.13,South,176,0.0,0.0,93,0.00,,,0.00,weatherlink.com 1.10,2013-07-30 03:52:00,
2013-07-29 23:07:00,68.3,66.0,30.13,South,176,0.0,1.0,92,0.00,,,0.00,weatherlink.com 1.10,2013-07-30 04:07:00,
2013-07-29 23:22:00,68.1,66.0,30.12,South,176,0.0,0.0,92,0.00,,,0.00,weatherlink.com 1.10,2013-07-30 04:22:00,
2013-07-29 23:37:00,67.8,66.0,30.12,South,176,0.0,1.0,92,0.00,,,0.00,weatherlink.com 1.10,2013-07-30 04:37:00,
2013-07-29 23:52:00,67.5,65.0,30.13,South,176,0.0,0.0,92,0.00,,,0.00,weatherlink.com 1.10,2013-07-30 04:52:00,